createdAt,value
2018-06-08T00:00:52.187Z,94080.74
2018-06-08T00:03:21.680Z,94078.66
2018-06-08T00:05:50.969Z,94080.41
2018-06-08T00:08:20.355Z,94081.91
2018-06-08T00:10:49.809Z,94080.06
2018-06-08T00:13:19.174Z,94080.34
2018-06-08T00:15:48.681Z,94078.91
2018-06-08T00:18:17.927Z,94081.69
2018-06-08T00:20:47.232Z,94083.84
2018-06-08T00:23:16.523Z,94083.78
2018-06-08T00:25:45.836Z,94083.78
2018-06-08T00:28:14.914Z,94082.08
2018-06-08T00:30:44.236Z,94086.83
2018-06-08T00:33:13.685Z,94083.88
2018-06-08T00:35:42.915Z,94084.45
2018-06-08T00:38:12.224Z,94083.14
2018-06-08T00:40:41.651Z,94083.34
2018-06-08T00:43:10.992Z,94076.70
2018-06-08T00:45:41.303Z,94071.36
2018-06-08T00:48:10.686Z,94067.27
2018-06-08T00:50:39.989Z,94065.81
2018-06-08T00:53:09.393Z,94063.62
2018-06-08T00:55:38.617Z,94053.50
2018-06-08T00:58:07.962Z,94054.92
2018-06-08T01:00:37.282Z,94046.67
2018-06-08T01:03:06.746Z,94044.67
2018-06-08T01:05:36.032Z,94041.81
2018-06-08T01:08:05.378Z,94038.38
2018-06-08T01:10:34.640Z,94034.39
2018-06-08T01:13:04.006Z,94037.78
2018-06-08T01:15:33.229Z,94030.91
2018-06-08T01:18:02.648Z,94028.00
2018-06-08T01:20:31.920Z,94036.64
2018-06-08T01:23:01.384Z,94044.41
2018-06-08T01:25:30.742Z,94039.77
2018-06-08T01:27:59.971Z,94037.97
2018-06-08T01:30:29.240Z,94034.22
2018-06-08T01:32:58.503Z,94036.05
2018-06-08T01:35:27.927Z,94040.06
2018-06-08T01:37:57.346Z,94042.05
2018-06-08T01:40:26.577Z,94044.19
2018-06-08T01:42:55.884Z,94042.92
2018-06-08T01:45:25.273Z,94049.69
2018-06-08T01:47:54.790Z,94048.66
2018-06-08T01:50:24.167Z,94059.38
2018-06-08T01:52:53.600Z,94049.54
2018-06-08T01:55:22.968Z,94045.02
2018-06-08T01:57:52.432Z,94047.39
2018-06-08T02:00:21.691Z,94052.97
2018-06-08T02:02:51.041Z,94049.25
2018-06-08T02:05:20.318Z,94056.41
2018-06-08T02:07:49.757Z,94047.73
2018-06-08T02:10:19.150Z,94049.28
2018-06-08T02:12:48.437Z,94052.17
2018-06-08T02:15:17.802Z,94052.06
2018-06-08T02:17:47.221Z,94046.89
2018-06-08T02:20:16.728Z,94049.70
2018-06-08T02:22:46.449Z,94058.64
2018-06-08T02:25:16.096Z,94059.83
2018-06-08T02:27:45.495Z,94068.26
2018-06-08T02:30:15.022Z,94066.39
2018-06-08T02:32:44.387Z,94073.13
2018-06-08T02:35:14.322Z,94083.53
2018-06-08T02:37:44.562Z,94085.22
2018-06-08T02:40:13.820Z,94089.42
2018-06-08T02:42:43.085Z,94091.00
2018-06-08T02:45:12.537Z,94095.98
2018-06-08T02:47:41.988Z,94083.47
2018-06-08T02:50:11.407Z,94081.68
2018-06-08T02:52:40.848Z,94079.89
2018-06-08T02:55:10.318Z,94088.70
2018-06-08T02:57:39.943Z,94091.69
2018-06-08T03:00:09.281Z,94088.59
2018-06-08T03:02:38.729Z,94084.84
2018-06-08T03:05:08.102Z,94088.94
2018-06-08T03:07:37.669Z,94090.48
2018-06-08T03:10:06.980Z,94089.35
2018-06-08T03:12:36.223Z,94087.56
2018-06-08T03:15:05.647Z,94088.94
2018-06-08T03:17:35.002Z,94087.97
2018-06-08T03:20:04.569Z,94087.25
2018-06-08T03:22:33.988Z,94056.64
2018-06-08T03:25:03.363Z,94078.61
2018-06-08T03:27:32.878Z,94074.96
2018-06-08T03:30:02.360Z,94071.83
2018-06-08T03:32:31.824Z,94072.63
2018-06-08T03:35:01.185Z,94066.23
2018-06-08T03:37:30.605Z,94066.61
2018-06-08T03:39:59.993Z,94062.45
2018-06-08T03:42:29.485Z,94061.70
2018-06-08T03:44:58.965Z,94065.03
2018-06-08T03:47:28.332Z,94061.39
2018-06-08T03:49:57.672Z,94063.59
2018-06-08T03:52:29.231Z,94052.30
2018-06-08T03:54:58.674Z,94051.24
2018-06-08T03:57:28.140Z,94048.78
2018-06-08T03:59:57.520Z,94042.27
2018-06-08T04:02:26.755Z,94046.05
2018-06-08T04:04:56.095Z,94050.00
2018-06-08T04:07:25.397Z,94060.18
2018-06-08T04:09:54.709Z,94068.55
2018-06-08T04:12:24.086Z,94068.36
2018-06-08T04:14:53.574Z,94065.30
2018-06-08T04:17:23.386Z,94065.91
2018-06-08T04:19:52.714Z,94070.70
2018-06-08T04:22:22.027Z,94066.90
2018-06-08T04:24:51.353Z,94070.36
2018-06-08T04:27:20.758Z,94076.88
2018-06-08T04:29:50.242Z,94079.37
2018-06-08T04:32:19.717Z,94083.02
2018-06-08T04:34:49.669Z,94082.16
2018-06-08T04:37:19.001Z,94070.47
2018-06-08T04:39:48.300Z,94072.64
2018-06-08T04:42:17.643Z,94067.43
2018-06-08T04:44:47.111Z,94074.52
2018-06-08T04:47:16.531Z,94066.47
2018-06-08T04:49:46.694Z,94067.55
2018-06-08T04:52:16.146Z,94063.87
2018-06-08T04:54:45.457Z,94069.92
2018-06-08T04:57:14.972Z,94070.80
2018-06-08T04:59:44.255Z,94075.39
2018-06-08T05:02:14.564Z,94069.55
2018-06-08T05:04:44.486Z,94076.14
2018-06-08T05:07:14.584Z,94077.83
2018-06-08T05:09:44.104Z,94077.84
2018-06-08T05:12:14.787Z,94086.30
2018-06-08T05:14:44.278Z,94082.16
2018-06-08T05:17:13.665Z,94081.67
2018-06-08T05:19:42.994Z,94088.03
2018-06-08T05:22:12.379Z,94082.05
2018-06-08T05:24:41.839Z,94083.44
2018-06-08T05:27:11.139Z,94088.23
2018-06-08T05:29:40.452Z,94080.64
2018-06-08T05:32:09.746Z,94076.05
2018-06-08T05:34:40.646Z,94090.98
2018-06-08T05:37:09.977Z,94098.64
2018-06-08T05:39:39.389Z,94095.72
2018-06-08T05:42:08.836Z,94087.07
2018-06-08T05:44:38.268Z,94096.77
2018-06-08T05:47:07.638Z,94099.42
2018-06-08T05:49:36.983Z,94100.48
2018-06-08T05:52:06.426Z,94099.09
2018-06-08T05:54:35.832Z,94096.33
2018-06-08T05:57:05.385Z,94096.11
2018-06-08T05:59:34.745Z,94095.70
2018-06-08T06:02:04.105Z,94085.67
2018-06-08T06:04:33.356Z,94074.53
2018-06-08T06:07:03.488Z,94068.41
2018-06-08T06:09:32.847Z,94060.27
2018-06-08T06:12:02.169Z,94060.00
2018-06-08T06:14:31.512Z,94053.80
2018-06-08T06:17:01.101Z,94051.03
2018-06-08T06:19:30.554Z,94048.25
2018-06-08T06:21:59.948Z,94048.55
2018-06-08T06:24:29.396Z,94058.17
2018-06-08T06:26:58.973Z,94054.98
2018-06-08T06:29:28.376Z,94051.41
2018-06-08T06:31:57.627Z,94050.59
2018-06-08T06:34:26.970Z,94049.64
2018-06-08T06:36:56.770Z,94052.46
2018-06-08T06:39:26.010Z,94048.10
2018-06-08T06:41:55.447Z,94044.45
2018-06-08T06:44:24.784Z,94031.07
2018-06-08T06:46:53.996Z,94036.36
2018-06-08T06:49:23.335Z,94028.02
2018-06-08T06:51:52.844Z,94024.43
2018-06-08T06:54:22.407Z,94020.05
2018-06-08T06:56:51.920Z,94019.88
2018-06-08T06:59:21.243Z,94032.45
2018-06-08T07:01:50.737Z,94032.91
2018-06-08T07:04:20.229Z,94028.55
2018-06-08T07:06:50.510Z,94026.77
2018-06-08T07:09:19.816Z,94023.64
2018-06-08T07:11:49.493Z,94017.40
2018-06-08T07:14:19.159Z,94007.48
2018-06-08T07:16:48.576Z,94009.03
2018-06-08T07:19:17.943Z,94003.46
2018-06-08T07:21:47.151Z,94000.89
2018-06-08T07:24:17.122Z,93997.57
2018-06-08T07:26:46.512Z,93997.08
2018-06-08T07:29:16.278Z,94002.20
2018-06-08T07:31:45.704Z,93999.73
2018-06-08T07:34:14.964Z,94000.52
2018-06-08T07:36:44.345Z,94006.06
2018-06-08T07:39:13.758Z,93996.20
2018-06-08T07:41:42.880Z,93990.97
2018-06-08T07:44:11.877Z,93990.78
2018-06-08T07:46:41.479Z,93997.23
2018-06-08T07:49:10.533Z,94002.84
2018-06-08T07:51:39.641Z,94003.36
2018-06-08T07:54:08.696Z,94011.50
2018-06-08T07:56:37.795Z,94013.67
2018-06-08T07:59:06.751Z,94007.59
2018-06-08T08:01:35.810Z,94003.30
2018-06-08T08:04:05.571Z,93994.27
2018-06-08T08:06:34.626Z,93990.33
2018-06-08T08:09:03.864Z,93992.64
2018-06-08T08:11:32.947Z,93985.52
2018-06-08T08:14:01.960Z,93993.23
2018-06-08T08:16:31.250Z,93998.92
2018-06-08T08:19:00.533Z,93991.31
2018-06-08T08:21:29.585Z,93990.22
2018-06-08T08:23:58.595Z,93985.42
2018-06-08T08:26:27.644Z,93975.34
2018-06-08T08:28:56.704Z,93971.02
2018-06-08T08:31:25.808Z,93965.78
2018-06-08T08:33:54.771Z,93959.61
2018-06-08T08:36:23.787Z,93964.82
2018-06-08T08:38:52.789Z,93954.77
2018-06-08T08:41:21.850Z,93942.55
2018-06-08T08:43:50.911Z,93940.95
2018-06-08T08:46:21.089Z,93939.27
2018-06-08T08:48:50.204Z,93928.87
2018-06-08T08:51:19.295Z,93932.19
2018-06-08T08:53:48.358Z,93932.02
2018-06-08T08:56:17.453Z,93928.83
2018-06-08T08:58:46.579Z,93921.61
2018-06-08T09:01:15.638Z,93922.04
2018-06-08T09:03:44.738Z,93919.22
2018-06-08T09:06:13.766Z,93918.08
2018-06-08T09:08:43.288Z,93923.50
2018-06-08T09:11:12.294Z,93926.89
2018-06-08T09:13:41.340Z,93929.56
2018-06-08T09:16:10.532Z,93934.69
2018-06-08T09:18:39.525Z,93931.12
2018-06-08T09:21:08.515Z,93915.06
2018-06-08T09:23:37.529Z,93907.20
2018-06-08T09:26:06.801Z,93903.45
2018-06-08T09:28:35.823Z,93905.59
2018-06-08T09:31:04.751Z,93908.22
2018-06-08T09:33:33.804Z,93901.88
2018-06-08T09:36:02.835Z,93892.58
2018-06-08T09:38:31.890Z,93893.03
2018-06-08T09:41:00.936Z,93898.13
2018-06-08T09:43:29.969Z,93894.72
2018-06-08T09:45:58.960Z,93898.28
2018-06-08T09:48:28.157Z,93883.10
2018-06-08T09:50:57.157Z,93883.06
2018-06-08T09:53:26.209Z,93889.05
2018-06-08T09:55:55.281Z,93883.06
2018-06-08T09:58:24.480Z,93875.73
2018-06-08T10:00:53.594Z,93871.39
2018-06-08T10:03:22.727Z,93874.20
2018-06-08T10:05:51.716Z,93870.17
2018-06-08T10:08:20.703Z,93859.31
2018-06-08T10:10:49.754Z,93863.11
2018-06-08T10:13:18.735Z,93858.30
2018-06-08T10:15:47.792Z,93863.89
2018-06-08T10:18:16.899Z,93856.25
2018-06-08T10:20:45.964Z,93857.53
2018-06-08T10:23:15.005Z,93850.10
2018-06-08T10:25:44.052Z,93847.44
2018-06-08T10:28:13.028Z,93854.96
2018-06-08T10:30:42.182Z,93857.32
2018-06-08T10:33:11.780Z,93860.36
2018-06-08T10:35:40.756Z,93853.34
2018-06-08T10:38:09.915Z,93851.59
2018-06-08T10:40:39.889Z,93854.64
2018-06-08T10:43:08.947Z,93853.59
2018-06-08T10:45:37.889Z,93851.34
2018-06-08T10:48:06.903Z,93849.31
2018-06-08T10:50:36.035Z,93853.44
2018-06-08T10:53:05.131Z,93850.67
2018-06-08T10:55:35.064Z,93850.22
2018-06-08T10:58:04.124Z,93846.09
2018-06-08T11:00:33.144Z,93838.45
2018-06-08T11:03:02.259Z,93834.31
2018-06-08T11:05:32.247Z,93828.97
2018-06-08T11:08:02.952Z,93829.42
2018-06-08T11:10:32.151Z,93823.89
2018-06-08T11:13:01.671Z,93822.66
2018-06-08T11:15:31.896Z,93820.63
2018-06-08T11:18:00.921Z,93812.95
2018-06-08T11:20:30.173Z,93810.42
2018-06-08T11:22:59.366Z,93810.73
2018-06-08T11:25:28.555Z,93808.94
2018-06-08T11:27:57.604Z,93803.29
2018-06-08T11:30:27.073Z,93799.84
2018-06-08T11:32:57.228Z,93793.06
2018-06-08T11:35:26.838Z,93792.43
2018-06-08T11:37:56.606Z,93791.61
2018-06-08T11:40:26.047Z,93787.63
2018-06-08T11:42:55.395Z,93783.64
2018-06-08T11:45:24.798Z,93778.68
2018-06-08T11:47:54.321Z,93774.93
2018-06-08T11:50:23.932Z,93772.18
2018-06-08T11:52:53.434Z,93766.84
2018-06-08T11:55:23.298Z,93760.35
2018-06-08T11:57:52.765Z,93763.31
2018-06-08T12:00:23.464Z,93757.98
2018-06-08T12:02:53.204Z,93751.02
2018-06-08T12:05:22.669Z,93753.05
2018-06-08T12:07:52.056Z,93745.97
2018-06-08T12:10:21.512Z,93739.16
2018-06-08T12:12:50.999Z,93740.41
2018-06-08T12:15:20.685Z,93738.85
2018-06-08T12:17:49.964Z,93736.02
2018-06-08T12:20:19.348Z,93730.86
2018-06-08T12:22:48.642Z,93731.05
2018-06-08T12:25:18.073Z,93725.81
2018-06-08T12:27:47.517Z,93719.81
2018-06-08T12:30:16.816Z,93720.67
2018-06-08T12:32:46.153Z,93722.92
2018-06-08T12:35:15.499Z,93711.25
2018-06-08T12:37:44.883Z,93717.07
2018-06-08T12:40:14.911Z,93706.20
2018-06-08T12:42:44.664Z,93710.02
2018-06-08T12:45:14.001Z,93706.08
2018-06-08T12:47:43.358Z,93703.30
2018-06-08T12:50:12.724Z,93701.22
2018-06-08T12:52:42.166Z,93694.48
2018-06-08T12:55:12.642Z,93688.41
2018-06-08T12:57:42.012Z,93691.61
2018-06-08T13:00:11.554Z,93684.99
2018-06-08T13:02:41.703Z,93679.20
2018-06-08T13:05:11.006Z,93683.19
2018-06-08T13:07:40.307Z,93680.09
2018-06-08T13:10:09.548Z,93684.52
2018-06-08T13:12:38.879Z,93675.36
2018-06-08T13:15:08.190Z,93687.23
2018-06-08T13:17:37.921Z,93677.44
2018-06-08T13:20:07.292Z,93679.36
2018-06-08T13:22:36.440Z,93682.57
2018-06-08T13:25:05.920Z,93681.61
2018-06-08T13:27:35.172Z,93677.38
2018-06-08T13:30:04.506Z,93683.54
2018-06-08T13:32:33.776Z,93675.77
2018-06-08T13:35:03.119Z,93683.70
2018-06-08T13:37:32.366Z,93682.45
2018-06-08T13:40:01.682Z,93685.69
2018-06-08T13:42:31.104Z,93686.95
2018-06-08T13:45:00.469Z,93685.19
2018-06-08T13:47:29.923Z,93685.31
2018-06-08T13:49:59.188Z,93683.09
2018-06-08T13:52:28.614Z,93687.83
2018-06-08T13:54:58.008Z,93680.38
2018-06-08T13:57:27.381Z,93687.61
2018-06-08T13:59:56.813Z,93679.18
2018-06-08T14:02:26.037Z,93677.85
2018-06-08T14:04:55.485Z,93674.48
2018-06-08T14:07:24.917Z,93670.42
2018-06-08T14:09:54.339Z,93667.66
2018-06-08T14:12:23.708Z,93669.23
2018-06-08T14:14:53.112Z,93662.77
2018-06-08T14:17:22.573Z,93660.25
2018-06-08T14:19:53.569Z,93661.81
2018-06-08T14:22:22.885Z,93658.17
2018-06-08T14:24:52.183Z,93657.41
2018-06-08T14:27:21.538Z,93653.52
2018-06-08T14:29:50.997Z,93657.70
2018-06-08T14:32:20.807Z,93652.97
2018-06-08T14:34:50.376Z,93655.58
2018-06-08T14:37:19.708Z,93643.55
2018-06-08T14:39:48.977Z,93629.70
2018-06-08T14:42:18.806Z,93626.72
2018-06-08T14:44:48.251Z,93630.73
2018-06-08T14:47:17.559Z,93628.87
2018-06-08T14:49:47.060Z,93625.92
2018-06-08T14:52:16.675Z,93619.24
2018-06-08T14:54:46.004Z,93620.70
2018-06-08T14:57:15.365Z,93619.87
2018-06-08T14:59:44.729Z,93615.78
2018-06-08T15:02:13.952Z,93622.97
2018-06-08T15:04:43.374Z,93625.06
2018-06-08T15:07:13.613Z,93624.47
2018-06-08T15:09:43.648Z,93624.77
2018-06-08T15:12:13.118Z,93619.66
2018-06-08T15:14:42.751Z,93622.14
2018-06-08T15:17:12.289Z,93618.47
2018-06-08T15:19:41.980Z,93614.61
2018-06-08T15:22:11.597Z,93613.70
2018-06-08T15:24:41.194Z,93612.27
2018-06-08T15:27:10.776Z,93613.83
2018-06-08T15:29:40.052Z,93610.82
2018-06-08T15:32:09.675Z,93605.05
2018-06-08T15:34:39.091Z,93602.60
2018-06-08T15:37:08.553Z,93584.00
2018-06-08T15:39:37.952Z,93582.72
2018-06-08T15:42:07.318Z,93580.44
2018-06-08T15:44:36.794Z,93580.77
2018-06-08T15:47:07.263Z,93585.95
2018-06-08T15:49:37.477Z,93574.10
2018-06-08T15:52:06.899Z,93575.92
2018-06-08T15:54:37.281Z,93570.37
2018-06-08T15:57:06.683Z,93571.48
2018-06-08T15:59:35.943Z,93571.03
2018-06-08T16:02:05.593Z,93577.03
2018-06-08T16:04:35.638Z,93582.71
2018-06-08T16:07:05.039Z,93586.27
2018-06-08T16:09:34.469Z,93586.05
2018-06-08T16:12:03.819Z,93580.94
2018-06-08T16:14:33.074Z,93586.81
2018-06-08T16:17:02.491Z,93581.62
2018-06-08T16:19:31.877Z,93588.27
2018-06-08T16:22:01.211Z,93587.92
2018-06-08T16:24:30.455Z,93581.05
2018-06-08T16:26:59.874Z,93576.59
2018-06-08T16:29:29.334Z,93580.16
2018-06-08T16:31:59.457Z,93581.11
2018-06-08T16:34:28.749Z,93582.75
2018-06-08T16:36:58.416Z,93584.30
2018-06-08T16:39:27.826Z,93584.30
2018-06-08T16:41:57.314Z,93587.95
2018-06-08T16:44:26.878Z,93598.69
2018-06-08T16:46:56.795Z,93608.11
2018-06-08T16:49:25.983Z,93610.97
2018-06-08T16:51:55.347Z,93611.30
2018-06-08T16:54:25.551Z,93628.17
2018-06-08T16:56:54.960Z,93644.87
2018-06-08T16:59:24.283Z,93642.58
2018-06-08T17:01:53.654Z,93641.45
2018-06-08T17:04:22.943Z,93655.69
2018-06-08T17:06:52.375Z,93641.34
2018-06-08T17:09:21.866Z,93653.77
2018-06-08T17:11:51.184Z,93657.11
2018-06-08T17:14:20.436Z,93667.63
2018-06-08T17:16:49.918Z,93674.98
2018-06-08T17:19:19.356Z,93685.40
2018-06-08T17:21:48.914Z,93686.82
2018-06-08T17:24:18.343Z,93693.52
2018-06-08T17:26:47.697Z,93700.02
2018-06-08T17:29:18.165Z,93702.45
2018-06-08T17:31:47.641Z,93703.56
2018-06-08T17:34:16.894Z,93706.16
2018-06-08T17:36:46.238Z,93713.28
2018-06-08T17:39:15.613Z,93715.42
2018-06-08T17:41:46.234Z,93716.95
2018-06-08T17:44:15.763Z,93720.55
2018-06-08T17:46:45.275Z,93718.84
2018-06-08T17:49:14.754Z,93719.58
2018-06-08T17:51:44.907Z,93728.50
2018-06-08T17:54:14.359Z,93730.66
2018-06-08T17:56:44.410Z,93741.79
2018-06-08T17:59:13.634Z,93738.40
2018-06-08T18:01:43.001Z,93750.30
2018-06-08T18:04:12.797Z,93748.17
2018-06-08T18:06:43.265Z,93756.92
2018-06-08T18:09:12.657Z,93743.42
2018-06-08T18:11:42.011Z,93754.57
2018-06-08T18:14:12.125Z,93752.23
2018-06-08T18:16:41.681Z,93751.89
2018-06-08T18:19:11.002Z,93759.44
2018-06-08T18:21:40.425Z,93757.02
2018-06-08T18:24:10.439Z,93770.06
2018-06-08T18:26:41.574Z,93783.55
2018-06-08T18:29:10.692Z,93796.77
2018-06-08T18:31:40.037Z,93799.53
2018-06-08T18:34:09.651Z,93792.16
2018-06-08T18:36:41.305Z,93793.89
2018-06-08T18:39:10.741Z,93791.36
2018-06-08T18:41:41.096Z,93792.32
2018-06-08T18:44:10.666Z,93789.61
2018-06-08T18:46:40.090Z,93790.84
2018-06-08T18:49:10.106Z,93777.52
2018-06-08T18:51:39.445Z,93773.25
2018-06-08T18:54:08.802Z,93766.94
2018-06-08T18:56:39.597Z,93760.08
2018-06-08T18:59:09.169Z,93752.29
2018-06-08T19:01:38.957Z,93755.66
2018-06-08T19:04:08.440Z,93750.64
2018-06-08T19:06:37.473Z,93747.89
2018-06-08T19:09:10.381Z,93745.50
2018-06-08T19:11:41.486Z,93743.06
2018-06-08T19:14:11.502Z,93733.08
2018-06-08T19:16:41.413Z,93729.02
2018-06-08T19:19:12.830Z,93712.39
2018-06-08T19:21:42.829Z,93703.10
2018-06-08T19:24:13.742Z,93679.98
2018-06-08T19:26:48.410Z,93678.21
2018-06-08T19:29:18.671Z,93674.75
2018-06-08T19:31:50.029Z,93680.72
2018-06-08T19:34:19.792Z,93673.88
2018-06-08T19:36:49.414Z,93670.54
2018-06-08T19:39:19.772Z,93675.86
2018-06-08T19:41:49.471Z,93668.41
2018-06-08T19:44:18.873Z,93662.38
2018-06-08T19:46:48.353Z,93663.20
2018-06-08T19:49:18.114Z,93672.13
2018-06-08T19:51:50.003Z,93685.96
2018-06-08T19:54:19.610Z,93683.20
2018-06-08T19:56:49.162Z,93676.88
2018-06-08T19:59:18.614Z,93684.68
2018-06-08T20:01:48.014Z,93700.11
2018-06-08T20:04:17.577Z,93721.66
2018-06-08T20:06:47.117Z,93735.20
2018-06-08T20:09:16.469Z,93734.95
2018-06-08T20:11:45.904Z,93728.14
2018-06-08T20:14:14.957Z,93740.09
2018-06-08T20:16:44.712Z,93746.28
2018-06-08T20:19:14.057Z,93750.23
2018-06-08T20:21:43.392Z,93747.22
2018-06-08T20:24:12.834Z,93746.08
2018-06-08T20:26:42.176Z,93746.20
2018-06-08T20:29:11.620Z,93737.92
2018-06-08T20:31:41.027Z,93724.97
2018-06-08T20:34:10.549Z,93719.66
2018-06-08T20:36:39.912Z,93724.95
2018-06-08T20:39:09.454Z,93726.36
2018-06-08T20:41:39.781Z,93717.11
2018-06-08T20:44:09.286Z,93718.54
2018-06-08T20:46:38.693Z,93717.61
2018-06-08T20:49:08.015Z,93721.03
2018-06-08T20:51:37.308Z,93726.22
2018-06-08T20:54:06.938Z,93732.02
2018-06-08T20:56:36.507Z,93733.66
2018-06-08T20:59:05.968Z,93731.06
2018-06-08T21:01:35.437Z,93732.88
2018-06-08T21:04:04.820Z,93736.76
2018-06-08T21:06:34.264Z,93745.29
2018-06-08T21:09:04.961Z,93742.05
2018-06-08T21:11:35.335Z,93740.78
2018-06-08T21:14:04.557Z,93746.35
2018-06-08T21:16:33.858Z,93756.97
2018-06-08T21:19:03.120Z,93765.67
2018-06-08T21:21:32.426Z,93768.61
2018-06-08T21:24:01.684Z,93773.74
2018-06-08T21:26:31.206Z,93777.60
2018-06-08T21:29:00.576Z,93782.84
2018-06-08T21:31:30.043Z,93789.41
2018-06-08T21:33:59.484Z,93800.76
2018-06-08T21:36:28.809Z,93803.30
2018-06-08T21:38:59.154Z,93814.66
2018-06-08T21:41:28.403Z,93822.23
2018-06-08T21:43:57.803Z,93832.36
2018-06-08T21:46:27.308Z,93832.48
2018-06-08T21:48:56.789Z,93841.09
2018-06-08T21:51:26.080Z,93840.25
2018-06-08T21:53:55.371Z,93846.86
2018-06-08T21:56:24.670Z,93854.52
2018-06-08T21:58:54.116Z,93847.67
2018-06-08T22:01:23.690Z,93844.04
2018-06-08T22:03:53.195Z,93836.14
2018-06-08T22:06:22.724Z,93840.11
2018-06-08T22:08:52.273Z,93834.61
2018-06-08T22:11:21.731Z,93835.09
2018-06-08T22:13:51.277Z,93827.20
2018-06-08T22:16:20.715Z,93823.77
2018-06-08T22:18:50.126Z,93828.60
2018-06-08T22:21:19.527Z,93823.91
2018-06-08T22:23:48.869Z,93821.20
2018-06-08T22:26:18.480Z,93813.95
2018-06-08T22:28:47.781Z,93812.64
2018-06-08T22:31:17.230Z,93818.88
2018-06-08T22:33:46.582Z,93813.92
2018-06-08T22:36:15.941Z,93806.56
2018-06-08T22:38:45.190Z,93805.70
2018-06-08T22:41:14.539Z,93820.24
2018-06-08T22:43:43.894Z,93816.02
2018-06-08T22:46:13.215Z,93819.65
2018-06-08T22:48:42.481Z,93828.05
2018-06-08T22:51:11.490Z,93823.40
2018-06-08T22:53:40.837Z,93833.41
2018-06-08T22:56:10.669Z,93843.59
2018-06-08T22:58:39.657Z,93854.91
2018-06-08T23:01:09.143Z,93856.23
2018-06-08T23:03:38.131Z,93852.34
2018-06-08T23:06:07.184Z,93851.03
2018-06-08T23:08:36.183Z,93847.60
2018-06-08T23:11:05.373Z,93859.38
2018-06-08T23:13:34.574Z,93858.83
2018-06-08T23:16:03.661Z,93846.89
2018-06-08T23:18:32.775Z,93847.60
2018-06-08T23:21:01.845Z,93849.87
2018-06-08T23:23:30.910Z,93845.41
2018-06-08T23:26:00.014Z,93843.59
2018-06-08T23:28:29.054Z,93841.00
2018-06-08T23:30:58.053Z,93845.98
2018-06-08T23:33:27.140Z,93845.40
2018-06-08T23:35:56.235Z,93839.63
2018-06-08T23:38:25.294Z,93835.14
2018-06-08T23:40:54.338Z,93827.59
2018-06-08T23:43:23.360Z,93826.03
2018-06-08T23:45:52.396Z,93824.52
2018-06-08T23:48:22.884Z,93825.03
2018-06-08T23:50:51.919Z,93824.08
2018-06-08T23:53:20.936Z,93822.20
2018-06-08T23:55:49.952Z,93819.87
2018-06-08T23:58:18.925Z,93819.83
